Página principal
METAR-TAF:

METAR-TAF

Aeroportos :

Brasília, Distrito Federal, Brasil

Aeroporto Internacional de Brasília

latitude: 15-52S, longitude: 047-56W, altura: 1061 m

Observação actual do tempo

O boletim foi feito há 28 minutos, às 14:00 UTC
Vento 10 kt de este
Temperatura 27°C
Humidade 20%
Pressão 1021 hPa
Visibilidade 10 km ou mais
sem nuvens abaixo de 1500 metros e sem cumulonimbus

METAR: SBBR 181400Z 10010KT CAVOK 27/02 Q1021

Hora: 11:28 (14:28 UTC)

Previsão

Previsão válida de 18 às 12 UTC a 19 às 12 UTC
Vento 8 kt de es-sudeste
Visibilidade 10 km ou mais
sem nuvens abaixo de 1500 metros e sem cumulonimbus
Tornando-se
de 18 às 17 UTC a 18 às 19 UTC
Vento 6 kt de sul
Probabilidade 30%
de 19 às 03 UTC a 19 às 09 UTC
Vento kt de norte

TAF: SBBR 1812/1912 11008KT CAVOK TX30/1818Z TN14/1909Z BECMG 1817/1819 17006KT PROB30 1903/1909 00000KT RMK PDS

Observações e previsões do tempo de mais de 4000 aeroportos (mensagens METAR e TAF).

As estações disponíveis são os pontos amarelos e vermelhos sobre o mapa.

Mova o rato sobre o mapa para ver o nome da estação.

Depois clique no ponto para visualizar as observações e previsões meteorológicas.

Para alterar o mapa : clique nos botões verdes com uma cruz preta para aumentar o zoom; no botão verde com uma pitada de zoom; ou nas setas verdes para mapas adjacentes.


METAR-TAF: